createdAt,value
2017-11-08T00:00:39.635Z,22.00
2017-11-08T00:03:07.176Z,19.40
2017-11-08T00:05:35.487Z,19.60
2017-11-08T00:08:03.047Z,19.77
2017-11-08T00:10:30.594Z,19.23
2017-11-08T00:12:58.269Z,20.90
2017-11-08T00:15:25.832Z,19.60
2017-11-08T00:17:55.408Z,19.63
2017-11-08T00:20:23.004Z,18.67
2017-11-08T00:22:50.571Z,19.57
2017-11-08T00:25:18.103Z,19.70
2017-11-08T00:27:45.646Z,17.37
2017-11-08T00:30:13.220Z,17.47
2017-11-08T00:32:40.760Z,19.67
2017-11-08T00:35:08.289Z,18.70
2017-11-08T00:37:35.846Z,20.50
2017-11-08T00:40:03.393Z,18.93
2017-11-08T00:42:30.927Z,18.87
2017-11-08T00:44:58.487Z,20.43
2017-11-08T00:47:26.014Z,19.80
2017-11-08T00:49:53.572Z,19.53
2017-11-08T00:52:21.141Z,19.90
2017-11-08T00:54:49.437Z,20.07
2017-11-08T01:00:15.981Z,19.00
2017-11-08T01:02:43.558Z,19.03
2017-11-08T01:05:11.105Z,18.17
2017-11-08T01:07:38.640Z,18.77
2017-11-08T01:10:06.211Z,18.90
2017-11-08T01:12:34.525Z,18.13
2017-11-08T01:15:02.060Z,16.67
2017-11-08T01:17:29.608Z,17.83
2017-11-08T01:19:57.146Z,20.70
2017-11-08T01:22:24.685Z,18.60
2017-11-08T01:24:52.242Z,19.17
2017-11-08T01:27:19.776Z,17.97
2017-11-08T01:29:47.306Z,18.07
2017-11-08T01:32:14.873Z,19.73
2017-11-08T01:34:42.416Z,16.67
2017-11-08T01:40:14.962Z,18.47
2017-11-08T01:42:42.527Z,20.07
2017-11-08T01:45:10.102Z,20.10
2017-11-08T01:47:37.657Z,19.00
2017-11-08T01:50:05.998Z,19.70
2017-11-08T01:52:33.535Z,18.93
2017-11-08T01:55:01.091Z,15.37
2017-11-08T01:57:28.655Z,19.83
2017-11-08T01:59:56.188Z,19.70
2017-11-08T02:02:23.724Z,19.27
2017-11-08T02:04:51.281Z,18.27
2017-11-08T02:07:18.807Z,18.87
2017-11-08T02:09:46.350Z,19.13
2017-11-08T02:12:13.929Z,18.40
2017-11-08T02:14:42.235Z,18.93
2017-11-08T02:17:09.783Z,17.60
2017-11-08T02:19:40.751Z,19.30
2017-11-08T02:22:10.448Z,17.67
2017-11-08T02:24:41.623Z,19.77
2017-11-08T02:27:12.363Z,20.53
2017-11-08T02:29:40.080Z,19.47
2017-11-08T02:32:07.629Z,20.57
2017-11-08T02:34:35.171Z,20.13
2017-11-08T02:37:02.704Z,18.00
2017-11-08T02:39:30.269Z,20.37
2017-11-08T02:41:57.874Z,20.50
2017-11-08T02:44:25.408Z,20.67
2017-11-08T02:46:58.931Z,16.87
2017-11-08T02:49:26.534Z,19.10
2017-11-08T02:51:54.081Z,19.80
2017-11-08T02:54:23.599Z,20.57
2017-11-08T02:56:51.894Z,20.80
2017-11-08T02:59:19.443Z,19.93
2017-11-08T03:01:47.000Z,19.47
2017-11-08T03:04:14.545Z,20.37
2017-11-08T03:06:42.101Z,21.17
2017-11-08T03:09:09.665Z,20.63
2017-11-08T03:11:37.986Z,21.43
2017-11-08T03:14:05.545Z,20.20
2017-11-08T03:16:33.109Z,22.13
2017-11-08T03:19:00.645Z,19.13
2017-11-08T03:21:28.189Z,18.83
2017-11-08T03:23:55.752Z,22.20
2017-11-08T03:26:23.296Z,19.20
2017-11-08T03:28:50.823Z,21.60
2017-11-08T03:31:18.406Z,22.33
2017-11-08T03:33:45.967Z,21.17
2017-11-08T03:36:13.512Z,20.60
2017-11-08T03:38:41.074Z,20.40
2017-11-08T03:41:08.635Z,19.53
2017-11-08T03:43:36.236Z,20.07
2017-11-08T03:46:03.807Z,20.80
2017-11-08T03:48:31.333Z,18.13
2017-11-08T03:50:58.861Z,19.33
2017-11-08T03:53:26.418Z,21.73
2017-11-08T03:55:53.964Z,21.07
2017-11-08T03:58:21.507Z,18.13
2017-11-08T04:00:49.070Z,21.83
2017-11-08T04:03:16.636Z,19.80
2017-11-08T04:05:44.179Z,21.03
2017-11-08T04:08:11.716Z,17.70
2017-11-08T04:10:39.252Z,17.37
2017-11-08T04:13:06.805Z,15.63
2017-11-08T04:15:34.356Z,18.87
2017-11-08T04:18:01.894Z,20.50
2017-11-08T04:20:29.444Z,20.30
2017-11-08T04:22:56.999Z,20.60
2017-11-08T04:25:24.538Z,21.30
2017-11-08T04:27:52.096Z,16.77
2017-11-08T04:30:19.650Z,20.67
2017-11-08T04:32:47.173Z,19.80
2017-11-08T04:35:14.701Z,22.10
2017-11-08T04:37:42.245Z,17.37
2017-11-08T04:40:09.782Z,19.23
2017-11-08T04:42:37.316Z,23.53
2017-11-08T04:45:05.432Z,19.07
2017-11-08T04:47:32.973Z,19.37
2017-11-08T04:50:00.507Z,22.43
2017-11-08T04:52:28.076Z,20.47
2017-11-08T04:54:56.383Z,21.87
2017-11-08T04:57:23.902Z,21.40
2017-11-08T04:59:51.498Z,21.33
2017-11-08T05:02:19.013Z,22.67
2017-11-08T05:04:46.534Z,24.53
2017-11-08T05:07:14.100Z,26.23
2017-11-08T05:09:41.657Z,25.53
2017-11-08T05:12:09.187Z,22.40
2017-11-08T05:14:36.736Z,21.03
2017-11-08T05:17:04.267Z,21.37
2017-11-08T05:19:31.786Z,23.60
2017-11-08T05:21:59.347Z,23.07
2017-11-08T05:24:26.880Z,21.57
2017-11-08T05:26:55.179Z,25.17
2017-11-08T05:29:22.759Z,27.43
2017-11-08T05:31:50.286Z,24.10
2017-11-08T05:34:17.811Z,24.23
2017-11-08T05:36:45.368Z,28.00
2017-11-08T05:39:12.908Z,25.53
2017-11-08T05:41:40.435Z,25.90
2017-11-08T05:44:07.989Z,24.93
2017-11-08T05:46:36.280Z,28.37
2017-11-08T05:49:03.806Z,30.30
2017-11-08T05:51:31.366Z,27.60
2017-11-08T05:53:58.923Z,27.60
2017-11-08T05:56:26.462Z,24.17
2017-11-08T05:58:54.012Z,26.83
2017-11-08T06:01:21.550Z,24.30
2017-11-08T06:03:49.075Z,24.17
2017-11-08T06:06:16.643Z,27.07
2017-11-08T06:08:44.536Z,27.13
2017-11-08T06:11:12.062Z,26.37
2017-11-08T06:13:40.386Z,22.80
2017-11-08T06:16:07.941Z,26.80
2017-11-08T06:18:35.497Z,25.77
2017-11-08T06:21:04.034Z,29.67
2017-11-08T06:23:31.571Z,27.73
2017-11-08T06:25:59.108Z,29.07
2017-11-08T06:28:26.648Z,25.07
2017-11-08T06:30:54.950Z,25.13
2017-11-08T06:33:22.476Z,25.17
2017-11-08T06:35:50.042Z,25.50
2017-11-08T06:38:17.596Z,24.50
2017-11-08T06:40:45.136Z,28.80
2017-11-08T06:43:12.693Z,26.70
2017-11-08T06:45:41.034Z,25.37
2017-11-08T06:48:08.783Z,22.80
2017-11-08T06:50:38.183Z,26.13
2017-11-08T06:53:05.722Z,28.40
2017-11-08T06:55:36.022Z,28.50
2017-11-08T06:58:03.596Z,27.10
2017-11-08T07:00:31.919Z,27.03
2017-11-08T07:02:59.463Z,27.00
2017-11-08T07:05:27.021Z,26.80
2017-11-08T07:07:54.567Z,24.83
2017-11-08T07:10:22.124Z,23.53
2017-11-08T07:12:49.684Z,29.17
2017-11-08T07:15:18.113Z,30.87
2017-11-08T07:17:45.634Z,27.50
2017-11-08T07:20:13.199Z,28.73
2017-11-08T07:22:40.735Z,26.30
2017-11-08T07:25:08.297Z,26.97
2017-11-08T07:27:35.871Z,30.60
2017-11-08T07:30:04.282Z,29.13
2017-11-08T07:32:31.896Z,29.37
2017-11-08T07:34:59.508Z,23.43
2017-11-08T07:37:27.232Z,26.97
2017-11-08T07:39:54.896Z,29.00
2017-11-08T07:42:22.459Z,29.20
2017-11-08T07:44:50.000Z,25.03
2017-11-08T07:47:18.386Z,23.67
2017-11-08T07:49:47.161Z,29.13
2017-11-08T07:52:14.755Z,29.63
2017-11-08T07:57:54.992Z,29.97
2017-11-08T08:00:22.645Z,30.13
2017-11-08T08:02:50.159Z,28.83
2017-11-08T08:05:17.688Z,29.57
2017-11-08T08:07:46.283Z,30.87
2017-11-08T08:10:13.806Z,26.53
2017-11-08T08:12:41.324Z,28.57
2017-11-08T08:15:08.883Z,29.53
2017-11-08T08:17:36.435Z,27.63
2017-11-08T08:20:07.831Z,26.17
2017-11-08T08:22:35.382Z,31.10
2017-11-08T08:25:02.904Z,26.63
2017-11-08T08:27:30.430Z,29.57
2017-11-08T08:29:57.967Z,28.57
2017-11-08T08:32:25.475Z,30.57
2017-11-08T08:34:53.017Z,31.10
2017-11-08T08:37:20.567Z,26.13
2017-11-08T08:39:48.084Z,27.17
2017-11-08T08:42:15.622Z,26.90
2017-11-08T08:44:43.174Z,26.77
2017-11-08T08:47:10.700Z,27.33
2017-11-08T08:49:38.231Z,30.40
2017-11-08T08:52:05.788Z,33.80
2017-11-08T08:54:33.323Z,32.63
2017-11-08T08:57:01.626Z,31.63
2017-11-08T08:59:29.177Z,36.23
2017-11-08T09:01:56.699Z,34.90
2017-11-08T09:04:24.266Z,33.60
2017-11-08T09:06:52.811Z,28.90
2017-11-08T09:09:20.345Z,30.17
2017-11-08T09:11:47.873Z,32.60
2017-11-08T09:14:15.435Z,33.97
2017-11-08T09:16:43.660Z,25.83
2017-11-08T09:19:11.196Z,26.67
2017-11-08T09:21:38.777Z,31.03
2017-11-08T09:24:06.316Z,27.33
2017-11-08T09:26:33.981Z,31.00
2017-11-08T09:29:04.272Z,25.07
2017-11-08T09:31:37.201Z,24.67
2017-11-08T09:34:04.795Z,27.50
2017-11-08T09:36:35.104Z,28.13
2017-11-08T09:39:02.625Z,27.70
2017-11-08T09:41:32.095Z,26.73
2017-11-08T09:43:59.687Z,28.67
2017-11-08T09:46:29.035Z,34.07
2017-11-08T09:48:56.594Z,29.20
2017-11-08T09:51:24.139Z,26.30
2017-11-08T09:53:51.675Z,30.87
2017-11-08T09:56:19.216Z,31.20
2017-11-08T09:58:46.753Z,30.67
2017-11-08T10:01:15.922Z,28.80
2017-11-08T10:03:44.248Z,28.13
2017-11-08T10:06:11.786Z,28.50
2017-11-08T10:08:41.099Z,31.90
2017-11-08T10:11:23.541Z,29.10
2017-11-08T10:13:51.072Z,30.80
2017-11-08T10:16:18.598Z,26.90
2017-11-08T10:18:47.216Z,27.57
2017-11-08T10:21:14.754Z,29.37
2017-11-08T10:23:42.290Z,28.43
2017-11-08T10:26:09.836Z,30.83
2017-11-08T10:28:37.532Z,27.13
2017-11-08T10:31:05.099Z,36.70
2017-11-08T10:33:32.663Z,27.17
2017-11-08T10:36:00.193Z,25.07
2017-11-08T10:38:27.722Z,31.43
2017-11-08T10:40:56.043Z,31.17
2017-11-08T10:43:23.527Z,32.90
2017-11-08T10:45:51.053Z,29.80
2017-11-08T10:48:18.617Z,28.03
2017-11-08T10:50:46.140Z,29.53
2017-11-08T10:53:13.683Z,32.70
2017-11-08T10:55:41.265Z,26.47
2017-11-08T10:58:08.798Z,31.00
2017-11-08T11:00:37.235Z,31.43
2017-11-08T11:03:06.443Z,31.53
2017-11-08T11:05:34.738Z,35.40
2017-11-08T11:08:02.278Z,33.93
2017-11-08T11:10:29.853Z,31.07
2017-11-08T11:13:03.371Z,39.23
2017-11-08T11:15:30.941Z,35.10
2017-11-08T11:17:58.498Z,32.20
2017-11-08T11:20:27.829Z,32.43
2017-11-08T11:22:56.152Z,29.63
2017-11-08T11:25:26.312Z,32.10
2017-11-08T11:27:53.840Z,35.67
2017-11-08T11:30:25.932Z,30.53
2017-11-08T11:32:53.455Z,28.57
2017-11-08T11:35:21.012Z,29.60
2017-11-08T11:37:49.051Z,27.67
2017-11-08T11:40:17.362Z,35.20
2017-11-08T11:42:44.961Z,32.17
2017-11-08T11:45:12.579Z,34.33
2017-11-08T11:47:40.111Z,34.80
2017-11-08T11:50:07.755Z,28.77
2017-11-08T11:52:35.427Z,34.60
2017-11-08T11:55:03.753Z,34.30
2017-11-08T11:57:31.309Z,32.17
2017-11-08T12:00:05.456Z,35.00
2017-11-08T12:02:32.979Z,32.67
2017-11-08T12:05:01.346Z,34.90
2017-11-08T12:07:32.637Z,36.60
2017-11-08T12:10:02.963Z,37.97
2017-11-08T12:12:30.501Z,34.40
2017-11-08T12:14:58.055Z,33.83
2017-11-08T12:17:25.588Z,38.47
2017-11-08T12:19:53.131Z,35.30
2017-11-08T12:22:20.689Z,32.17
2017-11-08T12:24:48.229Z,35.03
2017-11-08T12:27:15.777Z,37.57
2017-11-08T12:29:43.326Z,38.37
2017-11-08T12:32:10.859Z,31.97
2017-11-08T12:34:39.340Z,36.80
2017-11-08T12:37:06.893Z,39.37
2017-11-08T12:39:35.244Z,42.53
2017-11-08T12:42:03.552Z,35.53
2017-11-08T12:47:33.181Z,40.20
2017-11-08T12:50:00.764Z,35.80
2017-11-08T12:52:29.053Z,36.90
2017-11-08T12:54:56.590Z,33.73
2017-11-08T12:57:24.150Z,39.40
2017-11-08T12:59:51.691Z,36.00
2017-11-08T13:02:19.226Z,34.93
2017-11-08T13:04:46.824Z,35.73
2017-11-08T13:07:14.376Z,35.80
2017-11-08T13:09:41.987Z,37.93
2017-11-08T13:12:09.572Z,36.63
2017-11-08T13:14:37.133Z,37.80
2017-11-08T13:17:05.434Z,37.53
2017-11-08T13:19:32.997Z,36.33
2017-11-08T13:22:00.530Z,35.43
2017-11-08T13:24:28.082Z,33.93
2017-11-08T13:26:55.639Z,33.37
2017-11-08T13:29:23.173Z,33.47
2017-11-08T13:31:50.717Z,32.93
2017-11-08T13:34:18.289Z,36.57
2017-11-08T13:36:45.815Z,37.50
2017-11-08T13:39:13.332Z,41.83
2017-11-08T13:41:40.880Z,38.73
2017-11-08T13:44:08.422Z,36.00
2017-11-08T13:46:36.753Z,41.87
2017-11-08T13:49:05.075Z,37.90
2017-11-08T13:51:32.839Z,35.57
2017-11-08T13:54:00.413Z,37.33
2017-11-08T13:56:28.781Z,43.47
2017-11-08T13:58:56.327Z,36.43
2017-11-08T14:01:23.865Z,39.73
2017-11-08T14:03:52.195Z,39.33
2017-11-08T14:06:19.720Z,37.50
2017-11-08T14:08:47.313Z,34.77
2017-11-08T14:11:15.658Z,40.83
2017-11-08T14:13:43.180Z,35.27
2017-11-08T14:16:10.737Z,34.53
2017-11-08T14:18:38.299Z,39.93
2017-11-08T14:21:05.852Z,39.13
2017-11-08T14:23:33.391Z,36.73
2017-11-08T14:26:00.972Z,42.93
2017-11-08T14:28:28.515Z,42.23
2017-11-08T14:30:58.973Z,37.40
2017-11-08T14:33:26.539Z,39.07
2017-11-08T14:35:54.896Z,41.93
2017-11-08T14:38:22.445Z,36.43
2017-11-08T14:40:50.005Z,37.53
2017-11-08T14:43:18.339Z,38.77
2017-11-08T14:45:45.869Z,35.07
2017-11-08T14:48:13.443Z,38.20
2017-11-08T14:50:40.992Z,37.60
2017-11-08T14:53:08.588Z,38.17
2017-11-08T14:55:36.929Z,42.60
2017-11-08T14:58:04.455Z,36.67
2017-11-08T15:00:32.020Z,40.93
2017-11-08T15:02:59.583Z,36.37
2017-11-08T15:05:27.117Z,41.83
2017-11-08T15:07:54.662Z,35.40
2017-11-08T15:10:22.228Z,42.20
2017-11-08T15:12:49.776Z,42.60
2017-11-08T15:15:28.096Z,40.87
2017-11-08T15:17:56.388Z,36.50
2017-11-08T15:20:23.983Z,38.97
2017-11-08T15:22:51.975Z,45.10
2017-11-08T15:25:19.545Z,45.50
2017-11-08T15:27:47.095Z,43.87
2017-11-08T15:30:20.310Z,40.43
2017-11-08T15:32:48.629Z,38.77
2017-11-08T15:35:16.194Z,41.33
2017-11-08T15:37:43.800Z,42.43
2017-11-08T15:43:11.253Z,47.37
2017-11-08T15:45:39.089Z,49.17
2017-11-08T15:48:07.406Z,44.33
2017-11-08T15:50:34.993Z,43.73
2017-11-08T15:53:02.544Z,47.53
2017-11-08T15:55:30.076Z,39.10
2017-11-08T15:57:58.396Z,40.20
2017-11-08T16:00:25.932Z,44.57
2017-11-08T16:02:53.472Z,44.47
2017-11-08T16:05:21.084Z,43.93
2017-11-08T16:07:48.638Z,42.27
2017-11-08T16:10:16.176Z,41.80
2017-11-08T16:12:44.630Z,45.80
2017-11-08T16:15:12.171Z,38.07
2017-11-08T16:17:40.485Z,41.60
2017-11-08T16:20:13.725Z,44.90
2017-11-08T16:22:41.256Z,42.20
2017-11-08T16:25:08.787Z,40.20
2017-11-08T16:27:37.116Z,38.67
2017-11-08T16:30:04.646Z,48.40
2017-11-08T16:32:32.191Z,47.43
2017-11-08T16:34:59.744Z,42.50
2017-11-08T16:37:27.285Z,43.10
2017-11-08T16:39:54.821Z,45.37
2017-11-08T16:42:22.364Z,43.17
2017-11-08T16:44:49.888Z,44.97
2017-11-08T16:47:17.411Z,43.47
2017-11-08T16:49:44.977Z,43.80
2017-11-08T16:52:12.511Z,41.00
2017-11-08T16:54:40.056Z,45.07
2017-11-08T16:57:07.624Z,47.47
2017-11-08T16:59:35.193Z,47.37
2017-11-08T17:02:02.733Z,46.27
2017-11-08T17:04:30.315Z,49.03
2017-11-08T17:06:58.628Z,41.50
2017-11-08T17:09:26.155Z,47.87
2017-11-08T17:11:53.732Z,43.50
2017-11-08T17:14:21.252Z,39.40
2017-11-08T17:16:48.793Z,47.70
2017-11-08T17:19:16.352Z,41.60
2017-11-08T17:21:43.887Z,39.17
2017-11-08T17:24:11.425Z,44.70
2017-11-08T17:26:38.997Z,40.03
2017-11-08T17:29:06.536Z,47.50
2017-11-08T17:31:34.844Z,37.23
2017-11-08T17:34:03.165Z,39.10
2017-11-08T17:36:30.698Z,39.00
2017-11-08T17:38:58.264Z,39.40
2017-11-08T17:41:25.833Z,35.20
2017-11-08T17:43:54.140Z,35.43
2017-11-08T17:46:21.707Z,31.47
2017-11-08T17:48:49.274Z,28.20
2017-11-08T17:51:27.872Z,30.10
2017-11-08T17:53:55.531Z,30.57
2017-11-08T17:56:24.154Z,30.37
2017-11-08T17:58:51.931Z,25.10
2017-11-08T18:01:19.628Z,27.90
2017-11-08T18:03:47.985Z,30.90
2017-11-08T18:06:15.551Z,27.80
2017-11-08T18:08:43.116Z,26.87
2017-11-08T18:11:10.647Z,31.30
2017-11-08T18:13:38.176Z,26.07
2017-11-08T18:16:05.774Z,27.43
2017-11-08T18:18:33.605Z,24.20
2017-11-08T18:21:01.275Z,26.93
2017-11-08T18:23:29.013Z,22.63
2017-11-08T18:25:56.741Z,27.67
2017-11-08T18:28:24.901Z,22.53
2017-11-08T18:30:52.712Z,21.77
2017-11-08T18:33:20.328Z,24.03
2017-11-08T18:35:47.933Z,24.37
2017-11-08T18:38:15.552Z,23.43
2017-11-08T18:40:43.929Z,26.60
2017-11-08T18:43:11.579Z,24.90
2017-11-08T18:45:39.184Z,31.83
2017-11-08T18:48:06.741Z,27.43
2017-11-08T18:50:34.313Z,24.93
2017-11-08T18:53:01.916Z,23.47
2017-11-08T18:55:29.589Z,25.90
2017-11-08T18:57:57.623Z,26.60
2017-11-08T19:00:35.771Z,26.23
2017-11-08T19:03:03.404Z,24.20
2017-11-08T19:05:31.405Z,22.33
2017-11-08T19:07:59.067Z,23.13
2017-11-08T19:10:27.422Z,23.60
2017-11-08T19:12:56.767Z,28.47
2017-11-08T19:15:25.934Z,24.50
2017-11-08T19:17:54.146Z,23.33
2017-11-08T19:20:21.761Z,23.17
2017-11-08T19:22:49.634Z,23.60
2017-11-08T19:25:17.235Z,23.97
2017-11-08T19:27:45.074Z,22.83
2017-11-08T19:30:12.660Z,28.00
2017-11-08T19:32:40.221Z,28.43
2017-11-08T19:35:07.783Z,22.90
2017-11-08T19:37:36.144Z,25.20
2017-11-08T19:40:03.745Z,27.47
2017-11-08T19:42:31.456Z,22.43
2017-11-08T19:44:59.795Z,21.87
2017-11-08T19:47:27.706Z,22.63
2017-11-08T19:49:55.312Z,25.23
2017-11-08T19:52:22.887Z,30.80
2017-11-08T19:54:50.463Z,23.57
2017-11-08T19:57:18.053Z,22.40
2017-11-08T19:59:46.418Z,25.60
2017-11-08T20:02:14.742Z,22.80
2017-11-08T20:04:42.506Z,22.93
2017-11-08T20:07:10.300Z,22.93
2017-11-08T20:09:38.833Z,21.83
2017-11-08T20:12:06.400Z,22.30
2017-11-08T20:14:34.742Z,26.80
2017-11-08T20:17:02.293Z,22.33
2017-11-08T20:19:31.273Z,27.83
2017-11-08T20:21:59.605Z,21.77
2017-11-08T20:24:27.388Z,23.17
2017-11-08T20:26:55.784Z,23.20
2017-11-08T20:29:23.390Z,24.43
2017-11-08T20:31:51.698Z,27.90
2017-11-08T20:34:19.250Z,24.70
2017-11-08T20:36:47.088Z,29.70
2017-11-08T20:39:14.632Z,32.43
2017-11-08T20:41:42.164Z,24.47
2017-11-08T20:44:10.488Z,22.53
2017-11-08T20:46:38.018Z,24.27
2017-11-08T20:49:05.566Z,28.33
2017-11-08T20:51:33.131Z,24.80
2017-11-08T20:54:00.978Z,23.10
2017-11-08T20:56:28.661Z,21.13
2017-11-08T20:58:56.258Z,23.23
2017-11-08T21:01:23.829Z,23.43
2017-11-08T21:03:51.387Z,22.17
2017-11-08T21:06:18.983Z,24.97
2017-11-08T21:08:46.528Z,23.90
2017-11-08T21:11:14.083Z,22.07
2017-11-08T21:13:41.653Z,21.07
2017-11-08T21:16:09.176Z,23.63
2017-11-08T21:18:36.712Z,23.73
2017-11-08T21:21:04.311Z,24.40
2017-11-08T21:23:32.055Z,24.17
2017-11-08T21:25:59.591Z,24.93
2017-11-08T21:28:28.072Z,26.50
2017-11-08T21:30:55.632Z,21.37
2017-11-08T21:33:23.632Z,22.03
2017-11-08T21:35:51.263Z,23.83
2017-11-08T21:38:21.510Z,30.87
2017-11-08T21:40:51.692Z,26.20
2017-11-08T21:43:20.419Z,21.77
2017-11-08T21:45:48.458Z,25.20
2017-11-08T21:48:18.470Z,27.30
2017-11-08T21:50:46.614Z,31.17
2017-11-08T21:53:28.815Z,24.33
2017-11-08T21:55:58.394Z,25.33
2017-11-08T22:01:21.469Z,23.73
2017-11-08T22:04:01.079Z,24.90
2017-11-08T22:06:30.640Z,18.67
2017-11-08T22:09:11.123Z,25.40
2017-11-08T22:11:39.020Z,21.17
2017-11-08T22:14:07.556Z,26.20
2017-11-08T22:16:35.888Z,22.57
2017-11-08T22:19:04.080Z,21.27
2017-11-08T22:21:32.525Z,25.60
2017-11-08T22:24:00.108Z,21.93
2017-11-08T22:26:29.469Z,20.97
2017-11-08T22:28:57.067Z,23.37
2017-11-08T22:31:24.866Z,23.67
2017-11-08T22:33:52.420Z,21.73
2017-11-08T22:36:20.693Z,21.60
2017-11-08T22:38:49.469Z,19.77
2017-11-08T22:41:18.852Z,20.00
2017-11-08T22:43:46.420Z,23.87
2017-11-08T22:46:13.991Z,23.57
2017-11-08T22:48:41.669Z,22.97
2017-11-08T22:51:09.972Z,24.30
2017-11-08T22:53:38.458Z,22.27
2017-11-08T22:56:06.885Z,19.53
2017-11-08T22:58:34.820Z,18.33
2017-11-08T23:01:02.641Z,26.33
2017-11-08T23:03:30.422Z,21.33
2017-11-08T23:06:07.503Z,19.37
2017-11-08T23:08:42.335Z,21.80
2017-11-08T23:11:11.037Z,23.57
2017-11-08T23:13:43.991Z,23.67
2017-11-08T23:16:13.415Z,22.77
2017-11-08T23:18:49.141Z,23.53
2017-11-08T23:21:22.686Z,19.93
2017-11-08T23:23:56.107Z,22.27
2017-11-08T23:26:24.136Z,22.83
2017-11-08T23:28:51.679Z,20.97
2017-11-08T23:31:19.979Z,23.00
2017-11-08T23:33:47.515Z,22.77
2017-11-08T23:36:15.054Z,20.97
2017-11-08T23:38:42.604Z,20.97
2017-11-08T23:41:10.164Z,21.63
2017-11-08T23:43:37.707Z,20.77
2017-11-08T23:46:05.244Z,20.37
2017-11-08T23:48:32.810Z,21.53
2017-11-08T23:51:00.353Z,19.10
2017-11-08T23:53:27.909Z,21.37
2017-11-08T23:55:55.478Z,17.40
2017-11-08T23:58:23.810Z,18.00
